createdAt,value
2019-05-15T15:11:11.526Z,1.50
2019-05-15T15:13:38.571Z,1.40
2019-05-15T15:16:08.500Z,1.40
2019-05-15T15:18:35.123Z,1.60
2019-05-15T15:21:02.170Z,1.93
2019-05-15T15:23:29.215Z,1.73
2019-05-15T15:25:57.838Z,1.50
2019-05-15T15:28:25.126Z,1.70
2019-05-15T15:30:52.204Z,1.80
2019-05-15T15:33:19.240Z,1.70
2019-05-15T15:35:48.567Z,2.00
2019-05-15T15:38:15.415Z,1.70
2019-05-15T15:40:42.585Z,1.90
2019-05-15T15:43:09.868Z,1.80
2019-05-15T15:45:39.155Z,1.80
2019-05-15T15:48:08.375Z,1.80
2019-05-15T15:50:38.107Z,1.80
2019-05-15T15:53:04.817Z,1.80
2019-05-15T15:55:32.106Z,1.70
2019-05-15T15:57:59.407Z,2.00
2019-05-15T16:00:28.717Z,2.10
2019-05-15T16:02:55.501Z,1.93
2019-05-15T16:05:22.571Z,2.53
2019-05-15T16:07:50.012Z,2.40
2019-05-15T16:10:18.984Z,2.17
2019-05-15T16:12:46.262Z,2.10
2019-05-15T16:15:13.601Z,2.23
2019-05-15T16:17:40.711Z,2.20
2019-05-15T16:20:08.557Z,2.30
2019-05-15T16:22:37.922Z,2.50
2019-05-15T16:25:04.607Z,2.40
2019-05-15T16:27:31.661Z,2.30
2019-05-15T16:29:58.718Z,2.50
2019-05-15T16:32:25.794Z,2.90
2019-05-15T16:34:52.873Z,2.63
2019-05-15T16:37:20.266Z,2.87
2019-05-15T16:39:48.786Z,2.60
2019-05-15T16:42:17.982Z,2.30
2019-05-15T16:44:44.843Z,2.80
2019-05-15T16:47:11.934Z,2.70
2019-05-15T16:49:39.242Z,2.43
2019-05-15T16:52:09.007Z,2.50
2019-05-15T16:54:37.857Z,2.60
2019-05-15T16:57:04.463Z,3.00
2019-05-15T16:59:35.756Z,2.70
2019-05-15T17:02:00.411Z,3.00
2019-05-15T17:04:28.891Z,3.17
2019-05-15T17:06:58.429Z,2.70
2019-05-15T17:09:25.028Z,3.03
2019-05-15T17:11:52.103Z,3.53
2019-05-15T17:14:19.973Z,3.17
2019-05-15T17:16:48.102Z,2.93
2019-05-15T17:19:15.257Z,2.60
2019-05-15T17:21:42.290Z,3.07
2019-05-15T17:24:09.347Z,2.53
2019-05-15T17:26:36.377Z,2.80
2019-05-15T17:29:03.402Z,3.20
2019-05-15T17:31:30.458Z,2.93
2019-05-15T17:33:58.289Z,2.60
2019-05-15T17:36:25.469Z,2.87
2019-05-15T17:38:52.522Z,3.57
2019-05-15T17:41:19.556Z,2.80
2019-05-15T17:43:48.513Z,3.40
2019-05-15T17:46:15.521Z,3.03
2019-05-15T17:48:42.638Z,3.40
2019-05-15T17:51:09.675Z,3.30
2019-05-15T17:53:38.297Z,3.30
2019-05-15T17:56:05.499Z,3.27
2019-05-15T17:58:32.547Z,3.60
2019-05-15T18:00:59.726Z,3.33
2019-05-15T18:03:28.812Z,3.33
2019-05-15T18:05:55.732Z,2.90
2019-05-15T18:08:22.774Z,2.93
2019-05-15T18:10:49.876Z,3.20
2019-05-15T18:13:17.135Z,2.60
2019-05-15T18:15:44.174Z,2.53
2019-05-15T18:18:11.320Z,2.80
2019-05-15T18:20:38.599Z,2.87
2019-05-15T18:23:08.187Z,3.30
2019-05-15T18:25:34.726Z,2.90
2019-05-15T18:28:01.764Z,2.60
2019-05-15T18:30:28.922Z,2.83
2019-05-15T18:32:58.517Z,2.70
2019-05-15T18:35:25.142Z,2.70
2019-05-15T18:37:52.226Z,3.20
2019-05-15T18:40:19.258Z,2.60
2019-05-15T18:42:49.335Z,2.90
2019-05-15T18:45:15.288Z,2.57
2019-05-15T18:47:42.321Z,2.77
2019-05-15T18:50:13.313Z,3.07
2019-05-15T18:52:38.746Z,2.87
2019-05-15T18:55:08.059Z,3.20
2019-05-15T18:57:35.322Z,3.23
2019-05-15T19:00:02.923Z,2.93
2019-05-15T19:02:29.938Z,3.00
2019-05-15T19:04:58.737Z,3.37
2019-05-15T19:07:25.956Z,3.27
2019-05-15T19:09:53.980Z,3.10
2019-05-15T19:12:21.047Z,3.57
2019-05-15T19:14:49.378Z,3.63
2019-05-15T19:17:18.818Z,3.40
2019-05-15T19:19:48.052Z,3.87
2019-05-15T19:22:14.689Z,4.07
2019-05-15T19:24:41.725Z,3.67
2019-05-15T19:27:08.899Z,3.83
2019-05-15T19:29:37.825Z,3.10
2019-05-15T19:32:04.943Z,3.10
2019-05-15T19:34:31.966Z,3.00
2019-05-15T19:36:59.048Z,2.90
2019-05-15T19:39:27.926Z,2.70
2019-05-15T19:41:54.984Z,2.90
2019-05-15T19:44:22.108Z,2.67
2019-05-15T19:46:49.450Z,3.00
2019-05-15T19:49:17.936Z,3.10
2019-05-15T19:51:45.194Z,2.90
2019-05-15T19:54:12.218Z,3.60
2019-05-15T19:56:39.424Z,3.43
2019-05-15T19:59:08.646Z,3.60
2019-05-15T20:01:35.422Z,3.20
2019-05-15T20:04:02.446Z,3.07
2019-05-15T20:06:29.599Z,3.50
2019-05-15T20:08:58.618Z,3.00
2019-05-15T20:11:27.765Z,3.00
2019-05-15T20:13:54.660Z,3.00
2019-05-15T20:16:21.687Z,2.67
2019-05-15T20:18:48.726Z,3.10
2019-05-15T20:21:18.064Z,2.80
2019-05-15T20:23:44.739Z,2.80
2019-05-15T20:26:11.790Z,3.27
2019-05-15T20:28:39.371Z,2.80
2019-05-15T20:31:07.943Z,3.00
2019-05-15T20:33:35.151Z,2.80
2019-05-15T20:36:02.191Z,2.57
2019-05-15T20:38:29.245Z,2.73
2019-05-15T20:40:59.478Z,2.57
2019-05-15T20:43:25.320Z,2.70
2019-05-15T20:45:52.340Z,2.53
2019-05-15T20:48:19.467Z,2.60
2019-05-15T20:50:48.368Z,2.47
2019-05-15T20:53:18.003Z,2.50
2019-05-15T20:55:44.529Z,2.90
2019-05-15T20:58:11.580Z,2.63
2019-05-15T21:00:40.981Z,2.77
2019-05-15T21:03:08.457Z,2.20
2019-05-15T21:05:35.604Z,2.67
2019-05-15T21:08:02.740Z,2.73
2019-05-15T21:10:29.825Z,2.80
2019-05-15T21:12:59.419Z,3.00
2019-05-15T21:15:25.835Z,3.87
2019-05-15T21:17:59.672Z,3.20
2019-05-15T21:20:21.861Z,2.97
2019-05-15T21:22:49.422Z,3.70
2019-05-15T21:25:19.123Z,3.30
2019-05-15T21:27:45.552Z,3.40
2019-05-15T21:30:12.751Z,2.90
2019-05-15T21:32:39.799Z,2.87
2019-05-15T21:35:09.137Z,2.50
2019-05-15T21:37:38.253Z,2.53
2019-05-15T21:40:08.227Z,2.60
2019-05-15T21:42:38.983Z,2.67
2019-05-15T21:45:05.281Z,2.50
2019-05-15T21:47:32.339Z,2.57
2019-05-15T21:49:59.422Z,2.50
2019-05-15T21:52:28.870Z,2.40
2019-05-15T21:54:55.380Z,2.90
2019-05-15T21:57:33.013Z,2.60
2019-05-15T21:59:51.383Z,2.47
2019-05-15T22:02:18.641Z,2.80
2019-05-15T22:04:55.070Z,2.60
2019-05-15T22:07:17.825Z,2.50
2019-05-15T22:09:44.983Z,2.50
2019-05-15T22:12:12.343Z,3.03
2019-05-15T22:14:40.052Z,2.30
2019-05-15T22:17:09.175Z,2.40
2019-05-15T22:19:38.542Z,2.70
2019-05-15T22:22:05.144Z,2.70
2019-05-15T22:24:32.385Z,2.87
2019-05-15T22:26:59.435Z,2.80
2019-05-15T22:29:28.723Z,2.60
2019-05-15T22:31:55.379Z,2.80
2019-05-15T22:34:22.447Z,2.97
2019-05-15T22:36:51.044Z,2.77
2019-05-15T22:39:18.918Z,2.90
2019-05-15T22:41:47.910Z,3.00
2019-05-15T22:44:15.063Z,2.80
2019-05-15T22:46:42.105Z,3.20
2019-05-15T22:49:09.207Z,2.53
2019-05-15T22:51:38.196Z,3.40
2019-05-15T22:54:05.243Z,3.30
2019-05-15T22:56:32.281Z,3.70
2019-05-15T22:58:59.307Z,3.03
2019-05-15T23:01:26.347Z,3.40
2019-05-15T23:03:53.831Z,3.80
2019-05-15T23:06:20.874Z,3.27
2019-05-15T23:08:48.984Z,3.73
2019-05-15T23:11:18.327Z,3.80
2019-05-15T23:13:45.244Z,3.70
2019-05-15T23:16:12.306Z,3.60
2019-05-15T23:18:39.377Z,4.30
2019-05-15T23:21:08.699Z,3.77
2019-05-15T23:23:35.309Z,4.00
2019-05-15T23:26:02.378Z,3.80
2019-05-15T23:28:29.404Z,3.93
2019-05-15T23:30:57.679Z,4.00
2019-05-15T23:33:24.892Z,4.40
2019-05-15T23:35:51.915Z,4.07
2019-05-15T23:38:18.949Z,4.20
2019-05-15T23:40:48.145Z,3.80
2019-05-15T23:43:14.943Z,3.70
2019-05-15T23:45:42.030Z,3.70
2019-05-15T23:48:09.101Z,3.57
2019-05-15T23:50:38.293Z,3.50
2019-05-15T23:53:05.060Z,4.10
2019-05-15T23:55:32.107Z,3.73
2019-05-15T23:57:59.124Z,3.70
